Gravelbourg, Canada
Current Conditions -  °F | °C
As of 2:00 PM on Thursday 27 Nov 2014 (Local Time) from CYMJ Reporting Station
Light Snow Light Snow  
Wind Chill: -1°   Ceiling: 1400
Heat Index: 14°   Visibility: 1.5mi
Dew Point: 12°   Wind: 14mph
Humidity: 93%   Direction: 100°E
Pressure: 29.95"   Gusts: NA
Location:  49.88°N, 106.55°W
Report Text: CYMJ 272000Z 10012KT 1 1/2SM -SN DRSN VV014 M10/M11 A2995 RMKSN8 /S02/ LAST OBS/NEXT 281100 UTC SLP187
Loading
Personal Weather Stations






























Interactive Weather Map New forecast layout! Learn more

10-Day Weather Forecast

Advertisements
Track Severe Weather on mobile